createdAt,value
2022-10-20T00:00:12.305Z,101354.72
2022-10-20T00:02:41.164Z,101351.53
2022-10-20T00:05:10.407Z,101356.72
2022-10-20T00:07:38.976Z,101356.63
2022-10-20T00:10:08.617Z,101362.72
2022-10-20T00:12:37.827Z,101361.16
2022-10-20T00:15:07.425Z,101367.63
2022-10-20T00:17:37.689Z,101367.06
2022-10-20T00:20:07.752Z,101368.69
2022-10-20T00:22:36.624Z,101367.91
2022-10-20T00:25:06.176Z,101367.22
2022-10-20T00:27:35.056Z,101362.03
2022-10-20T00:30:03.917Z,101368.97
2022-10-20T00:32:32.863Z,101367.41
2022-10-20T00:35:03.447Z,101358.97
2022-10-20T00:37:31.965Z,101358.09
2022-10-20T00:40:00.787Z,101353.88
2022-10-20T00:42:29.625Z,101359.25
2022-10-20T00:44:59.696Z,101356.53
2022-10-20T00:47:43.157Z,101358.38
2022-10-20T00:50:15.620Z,101368.78
2022-10-20T00:52:45.252Z,101368.00
2022-10-20T00:55:16.679Z,101360.16
2022-10-20T00:57:47.736Z,101355.84
2022-10-20T01:00:17.327Z,101359.25
2022-10-20T01:02:46.550Z,101350.53
2022-10-20T01:05:17.185Z,101352.47
2022-10-20T01:07:45.639Z,101358.75
2022-10-20T01:10:15.127Z,101357.75
2022-10-20T01:12:49.151Z,101363.75
2022-10-20T01:18:02.486Z,101367.16
2022-10-20T01:21:04.087Z,101367.25
2022-10-20T01:23:45.063Z,101364.75
2022-10-20T01:26:38.838Z,101358.66
2022-10-20T01:29:13.444Z,101363.84
2022-10-20T01:31:45.492Z,101364.97
2022-10-20T01:34:22.261Z,101363.47
2022-10-20T01:36:56.390Z,101366.09
2022-10-20T01:39:30.057Z,101364.50
2022-10-20T01:42:02.082Z,101364.75
2022-10-20T01:44:33.198Z,101346.38
2022-10-20T01:47:02.565Z,101360.88
2022-10-20T01:49:30.996Z,101354.06
2022-10-20T01:51:59.799Z,101362.97
2022-10-20T01:54:30.013Z,101362.22
2022-10-20T01:57:14.405Z,101352.75
2022-10-20T01:59:50.192Z,101356.34
2022-10-20T02:02:38.511Z,101361.66
2022-10-20T02:05:21.670Z,101357.41
2022-10-20T02:07:50.766Z,101358.38
2022-10-20T02:10:24.437Z,101350.63
2022-10-20T02:12:56.171Z,101348.06
2022-10-20T02:15:28.422Z,101344.53
2022-10-20T02:18:01.762Z,101349.91
2022-10-20T02:20:31.747Z,101352.47
2022-10-20T02:23:01.664Z,101350.75
2022-10-20T02:25:31.491Z,101343.84
2022-10-20T02:28:02.041Z,101341.91
2022-10-20T02:30:32.944Z,101339.38
2022-10-20T02:33:01.836Z,101347.63
2022-10-20T02:35:32.651Z,101338.09
2022-10-20T02:38:01.755Z,101340.72
2022-10-20T02:40:30.349Z,101339.09
2022-10-20T02:42:59.242Z,101343.31
2022-10-20T02:45:28.051Z,101345.16
2022-10-20T02:47:58.299Z,101347.63
2022-10-20T02:50:27.101Z,101353.13
2022-10-20T02:52:55.575Z,101353.13
2022-10-20T02:55:24.610Z,101350.59
2022-10-20T02:57:54.549Z,101353.41
2022-10-20T03:00:24.835Z,101358.78
2022-10-20T03:02:54.018Z,101360.72
2022-10-20T03:05:24.278Z,101354.69
2022-10-20T03:07:52.756Z,101359.34
2022-10-20T03:10:21.905Z,101355.81
2022-10-20T03:12:50.798Z,101354.16
2022-10-20T03:15:19.934Z,101345.47
2022-10-20T03:17:49.119Z,101357.13
2022-10-20T03:20:18.196Z,101358.28
2022-10-20T03:22:47.974Z,101358.94
2022-10-20T03:25:17.060Z,101356.97
2022-10-20T03:27:45.875Z,101357.75
2022-10-20T03:30:14.775Z,101363.97
2022-10-20T03:32:43.544Z,101358.59
2022-10-20T03:35:12.376Z,101370.97
2022-10-20T03:37:40.860Z,101357.13
2022-10-20T03:40:11.951Z,101364.09
2022-10-20T03:42:40.848Z,101375.47
2022-10-20T03:45:12.651Z,101367.75
2022-10-20T03:47:43.842Z,101372.97
2022-10-20T03:50:12.637Z,101374.75
2022-10-20T03:52:41.066Z,101371.44
2022-10-20T03:55:11.586Z,101376.53
2022-10-20T03:57:40.408Z,101374.88
2022-10-20T04:00:10.196Z,101380.97
2022-10-20T04:02:43.515Z,101387.03
2022-10-20T04:05:13.862Z,101387.94
2022-10-20T04:07:42.418Z,101384.53
2022-10-20T04:10:13.522Z,101398.53
2022-10-20T04:12:42.574Z,101393.16
2022-10-20T04:15:11.968Z,101395.88
2022-10-20T04:17:40.880Z,101399.44
2022-10-20T04:20:10.291Z,101394.28
2022-10-20T04:22:39.144Z,101396.00
2022-10-20T04:25:09.390Z,101388.94
2022-10-20T04:27:39.785Z,101384.50
2022-10-20T04:30:10.286Z,101398.66
2022-10-20T04:32:39.078Z,101400.72
2022-10-20T04:35:08.738Z,101392.25
2022-10-20T04:37:37.501Z,101395.03
2022-10-20T04:40:07.590Z,101389.00
2022-10-20T04:42:36.503Z,101389.78
2022-10-20T04:45:07.722Z,101396.50
2022-10-20T04:47:37.937Z,101396.13
2022-10-20T04:50:07.570Z,101402.06
2022-10-20T04:52:36.049Z,101403.03
2022-10-20T04:55:05.217Z,101396.25
2022-10-20T04:57:35.371Z,101404.09
2022-10-20T05:00:08.160Z,101411.91
2022-10-20T05:02:36.980Z,101406.81
2022-10-20T05:05:06.534Z,101413.53
2022-10-20T05:07:35.336Z,101413.41
2022-10-20T05:10:04.726Z,101408.00
2022-10-20T05:12:33.811Z,101413.13
2022-10-20T05:15:03.741Z,101414.88
2022-10-20T05:17:34.106Z,101413.81
2022-10-20T05:20:03.314Z,101409.38
2022-10-20T05:22:32.572Z,101413.44
2022-10-20T05:25:24.428Z,101414.34
2022-10-20T05:27:50.266Z,101411.78
2022-10-20T05:30:19.225Z,101414.22
2022-10-20T05:32:49.609Z,101422.56
2022-10-20T05:35:18.464Z,101420.94
2022-10-20T05:37:46.972Z,101421.25
2022-10-20T05:40:15.943Z,101425.44
2022-10-20T05:42:44.732Z,101435.75
2022-10-20T05:45:13.573Z,101432.88
2022-10-20T05:47:43.194Z,101434.81
2022-10-20T05:50:13.668Z,101432.44
2022-10-20T05:52:42.258Z,101436.06
2022-10-20T05:55:11.712Z,101438.41
2022-10-20T05:57:40.686Z,101441.44
2022-10-20T06:00:11.344Z,101441.72
2022-10-20T06:02:43.248Z,101450.88
2022-10-20T06:05:13.459Z,101446.78
2022-10-20T06:07:47.166Z,101444.66
2022-10-20T06:10:16.282Z,101454.00
2022-10-20T06:12:45.127Z,101448.13
2022-10-20T06:15:14.002Z,101454.16
2022-10-20T06:17:42.860Z,101455.47
2022-10-20T06:20:13.689Z,101455.06
2022-10-20T06:22:42.138Z,101448.78
2022-10-20T06:25:11.173Z,101450.19
2022-10-20T06:27:40.023Z,101451.53
2022-10-20T06:30:10.010Z,101453.28
2022-10-20T06:32:39.182Z,101451.91
2022-10-20T06:35:08.672Z,101449.88
2022-10-20T06:37:38.591Z,101455.25
2022-10-20T06:40:07.791Z,101458.38
2022-10-20T06:42:37.101Z,101458.69
2022-10-20T06:45:07.748Z,101467.91
2022-10-20T06:47:36.833Z,101472.44
2022-10-20T06:50:06.714Z,101471.78
2022-10-20T06:52:35.909Z,101472.13
2022-10-20T06:55:07.154Z,101469.81
2022-10-20T06:57:36.014Z,101475.06
2022-10-20T07:00:06.493Z,101482.31
2022-10-20T07:02:35.740Z,101484.75
2022-10-20T07:05:05.036Z,101478.19
2022-10-20T07:10:11.929Z,101482.47
2022-10-20T07:12:40.865Z,101480.78
2022-10-20T07:15:10.480Z,101474.56
2022-10-20T07:17:39.358Z,101476.56
2022-10-20T07:20:09.138Z,101477.28
2022-10-20T07:22:38.649Z,101477.06
2022-10-20T07:25:09.398Z,101480.56
2022-10-20T07:27:39.369Z,101483.38
2022-10-20T07:30:09.029Z,101492.03
2022-10-20T07:32:38.233Z,101490.31
2022-10-20T07:35:08.058Z,101488.69
2022-10-20T07:37:37.015Z,101487.72
2022-10-20T07:40:07.089Z,101481.97
2022-10-20T07:42:36.187Z,101479.94
2022-10-20T07:45:07.889Z,101487.50
2022-10-20T07:47:38.624Z,101481.16
2022-10-20T07:50:09.557Z,101488.75
2022-10-20T07:52:38.884Z,101482.09
2022-10-20T07:55:25.319Z,101473.72
2022-10-20T07:57:57.481Z,101481.97
2022-10-20T08:00:27.893Z,101475.81
2022-10-20T08:02:56.800Z,101480.00
2022-10-20T08:05:26.849Z,101486.69
2022-10-20T08:07:55.468Z,101483.41
2022-10-20T08:10:24.266Z,101483.91
2022-10-20T08:12:53.154Z,101484.56
2022-10-20T08:15:21.936Z,101479.00
2022-10-20T08:17:52.102Z,101481.88
2022-10-20T08:20:26.410Z,101474.66
2022-10-20T08:22:55.774Z,101482.06
2022-10-20T08:25:24.851Z,101479.03
2022-10-20T08:27:53.715Z,101486.47
2022-10-20T08:30:24.228Z,101484.81
2022-10-20T08:32:55.543Z,101490.53
2022-10-20T08:35:24.408Z,101479.50
2022-10-20T08:37:53.061Z,101488.19
2022-10-20T08:40:24.522Z,101484.94
2022-10-20T08:42:53.972Z,101484.28
2022-10-20T08:45:24.565Z,101482.56
2022-10-20T08:47:56.758Z,101481.28
2022-10-20T08:50:27.968Z,101483.44
2022-10-20T08:52:58.358Z,101485.63
2022-10-20T08:55:29.933Z,101491.56
2022-10-20T08:58:02.506Z,101493.91
2022-10-20T09:00:32.468Z,101487.94
2022-10-20T09:03:13.236Z,101482.94
2022-10-20T09:05:43.939Z,101489.19
2022-10-20T09:08:12.741Z,101483.16
2022-10-20T09:10:43.458Z,101487.06
2022-10-20T09:13:21.119Z,101487.56
2022-10-20T09:15:50.535Z,101473.78
2022-10-20T09:18:21.290Z,101484.84
2022-10-20T09:20:54.032Z,101480.59
2022-10-20T09:23:40.666Z,101475.63
2022-10-20T09:26:24.765Z,101483.34
2022-10-20T09:29:14.149Z,101487.66
2022-10-20T09:31:45.801Z,101483.19
2022-10-20T09:34:26.833Z,101483.63
2022-10-20T09:36:59.468Z,101481.34
2022-10-20T09:39:29.663Z,101483.13
2022-10-20T09:42:04.154Z,101477.25
2022-10-20T09:44:35.378Z,101481.25
2022-10-20T09:47:06.646Z,101470.16
2022-10-20T09:49:38.242Z,101463.81
2022-10-20T09:52:18.694Z,101467.47
2022-10-20T09:54:48.829Z,101457.72
2022-10-20T09:57:20.612Z,101462.63
2022-10-20T09:59:50.825Z,101458.06
2022-10-20T10:02:31.828Z,101461.72
2022-10-20T10:05:21.450Z,101458.19
2022-10-20T10:08:00.722Z,101442.97
2022-10-20T10:10:31.212Z,101441.78
2022-10-20T10:13:04.028Z,101442.56
2022-10-20T10:15:34.707Z,101445.84
2022-10-20T10:18:13.591Z,101446.63
2022-10-20T10:20:43.816Z,101448.56
2022-10-20T10:23:22.156Z,101442.09
2022-10-20T10:25:50.886Z,101439.88
2022-10-20T10:28:29.906Z,101442.34
2022-10-20T10:31:10.782Z,101446.91
2022-10-20T10:33:39.577Z,101447.50
2022-10-20T10:36:16.379Z,101451.13
2022-10-20T10:38:45.278Z,101455.03
2022-10-20T10:41:21.712Z,101447.81
2022-10-20T10:43:54.703Z,101451.34
2022-10-20T10:46:28.713Z,101453.66
2022-10-20T10:49:08.705Z,101442.94
2022-10-20T10:51:50.021Z,101431.91
2022-10-20T10:54:29.673Z,101417.34
2022-10-20T10:57:01.511Z,101415.72
2022-10-20T10:59:32.841Z,101423.38
2022-10-20T11:02:15.887Z,101417.78
2022-10-20T11:05:06.560Z,101411.31
2022-10-20T11:07:40.578Z,101415.28
2022-10-20T11:10:12.375Z,101413.66
2022-10-20T11:12:54.897Z,101406.69
2022-10-20T11:15:51.283Z,101399.50
2022-10-20T11:18:31.923Z,101396.13
2022-10-20T11:21:09.405Z,101381.22
2022-10-20T11:23:55.719Z,101380.41
2022-10-20T11:26:29.110Z,101368.88
2022-10-20T11:28:59.464Z,101364.03
2022-10-20T11:31:33.967Z,101360.84
2022-10-20T11:34:06.844Z,101353.31
2022-10-20T11:36:39.220Z,101347.56
2022-10-20T11:39:15.768Z,101350.25
2022-10-20T11:41:49.455Z,101351.53
2022-10-20T11:44:23.127Z,101354.34
2022-10-20T11:46:54.559Z,101362.97
2022-10-20T11:49:23.466Z,101344.00
2022-10-20T11:52:12.960Z,101346.88
2022-10-20T11:54:57.087Z,101340.03
2022-10-20T11:57:33.139Z,101334.72
2022-10-20T12:00:23.825Z,101342.81
2022-10-20T12:03:27.527Z,101335.38
2022-10-20T12:06:14.767Z,101330.03
2022-10-20T12:09:01.082Z,101326.38
2022-10-20T12:11:33.399Z,101324.69
2022-10-20T12:14:08.476Z,101320.81
2022-10-20T12:17:05.403Z,101329.66
2022-10-20T12:19:35.753Z,101334.06
2022-10-20T12:22:07.846Z,101333.56
2022-10-20T12:24:39.198Z,101328.84
2022-10-20T12:27:30.134Z,101318.47
2022-10-20T12:30:04.338Z,101317.66
2022-10-20T12:32:39.895Z,101324.22
2022-10-20T12:35:31.974Z,101313.91
2022-10-20T12:38:02.513Z,101314.50
2022-10-20T12:40:33.708Z,101317.66
2022-10-20T12:43:04.061Z,101312.19
2022-10-20T12:45:39.102Z,101313.59
2022-10-20T12:48:09.508Z,101306.13
2022-10-20T12:50:40.518Z,101312.47
2022-10-20T12:53:14.345Z,101313.69
2022-10-20T12:55:42.920Z,101316.28
2022-10-20T12:58:15.908Z,101323.91
2022-10-20T13:01:06.926Z,101321.22
2022-10-20T13:03:43.078Z,101319.56
2022-10-20T13:06:43.201Z,101316.75
2022-10-20T13:09:25.411Z,101321.63
2022-10-20T13:12:06.173Z,101323.22
2022-10-20T13:14:48.431Z,101316.78
2022-10-20T13:17:24.249Z,101318.41
2022-10-20T13:20:01.373Z,101327.97
2022-10-20T13:22:48.579Z,101326.88
2022-10-20T13:25:30.977Z,101321.25
2022-10-20T13:28:18.540Z,101319.31
2022-10-20T13:31:14.356Z,101318.75
2022-10-20T13:34:05.317Z,101323.25
2022-10-20T13:36:46.105Z,101321.41
2022-10-20T13:39:19.237Z,101313.72
2022-10-20T13:41:53.290Z,101316.91
2022-10-20T13:44:31.901Z,101313.84
2022-10-20T13:47:08.686Z,101310.91
2022-10-20T13:49:52.987Z,101306.94
2022-10-20T13:52:22.213Z,101302.31
2022-10-20T13:54:52.425Z,101301.25
2022-10-20T13:57:27.803Z,101297.78
2022-10-20T13:59:58.068Z,101295.75
2022-10-20T14:02:31.158Z,101291.53
2022-10-20T14:05:07.858Z,101297.97
2022-10-20T14:07:38.276Z,101294.16
2022-10-20T14:10:07.516Z,101293.97
2022-10-20T14:12:37.120Z,101285.44
2022-10-20T14:15:08.497Z,101284.03
2022-10-20T14:17:40.811Z,101278.50
2022-10-20T14:20:16.335Z,101279.84
2022-10-20T14:22:45.434Z,101276.97
2022-10-20T14:25:14.723Z,101279.88
2022-10-20T14:27:44.494Z,101279.91
2022-10-20T14:30:16.581Z,101281.22
2022-10-20T14:32:49.885Z,101279.19
2022-10-20T14:35:26.926Z,101279.06
2022-10-20T14:37:59.744Z,101281.59
2022-10-20T14:40:30.428Z,101274.56
2022-10-20T14:43:01.539Z,101274.06
2022-10-20T14:45:33.571Z,101270.06
2022-10-20T14:48:03.900Z,101270.13
2022-10-20T14:50:36.946Z,101270.13
2022-10-20T14:53:19.430Z,101259.63
2022-10-20T14:55:47.968Z,101254.25
2022-10-20T14:58:38.455Z,101258.97
2022-10-20T15:01:25.830Z,101255.47
2022-10-20T15:04:18.096Z,101248.63
2022-10-20T15:06:47.196Z,101251.03
2022-10-20T15:09:20.713Z,101254.63
2022-10-20T15:11:49.686Z,101244.19
2022-10-20T15:14:19.103Z,101255.00
2022-10-20T15:16:48.724Z,101251.41
2022-10-20T15:19:29.618Z,101251.75
2022-10-20T15:22:01.590Z,101241.53
2022-10-20T15:24:30.784Z,101244.28
2022-10-20T15:27:00.188Z,101239.00
2022-10-20T15:29:29.348Z,101243.69
2022-10-20T15:31:58.321Z,101243.81
2022-10-20T15:34:28.367Z,101240.19
2022-10-20T15:36:58.052Z,101238.50
2022-10-20T15:39:27.273Z,101242.56
2022-10-20T15:41:56.110Z,101250.69
2022-10-20T15:44:25.478Z,101236.97
2022-10-20T15:46:54.662Z,101250.88
2022-10-20T15:49:24.022Z,101246.56
2022-10-20T15:51:54.432Z,101248.00
2022-10-20T15:54:23.720Z,101251.44
2022-10-20T15:56:52.899Z,101253.31
2022-10-20T15:59:21.733Z,101249.22
2022-10-20T16:01:50.180Z,101255.03
2022-10-20T16:04:23.231Z,101251.06
2022-10-20T16:06:57.705Z,101252.56
2022-10-20T16:09:29.101Z,101250.75
2022-10-20T16:11:58.049Z,101253.84
2022-10-20T16:14:27.083Z,101250.44
2022-10-20T16:16:55.492Z,101249.50
2022-10-20T16:19:24.368Z,101254.88
2022-10-20T16:21:54.726Z,101253.34
2022-10-20T16:24:23.639Z,101248.63
2022-10-20T16:26:52.908Z,101256.84
2022-10-20T16:29:21.790Z,101249.97
2022-10-20T16:31:50.438Z,101258.38
2022-10-20T16:34:19.423Z,101266.91
2022-10-20T16:36:48.303Z,101263.34
2022-10-20T16:39:19.735Z,101262.50
2022-10-20T16:41:48.742Z,101260.94
2022-10-20T16:44:17.641Z,101260.72
2022-10-20T16:46:46.224Z,101258.91
2022-10-20T16:49:15.059Z,101254.50
2022-10-20T16:51:44.048Z,101246.50
2022-10-20T16:54:12.937Z,101248.09
2022-10-20T16:56:43.355Z,101246.94
2022-10-20T16:59:12.017Z,101259.31
2022-10-20T17:01:40.457Z,101252.44
2022-10-20T17:04:09.345Z,101252.84
2022-10-20T17:06:38.365Z,101257.94
2022-10-20T17:09:07.978Z,101260.06
2022-10-20T17:11:36.890Z,101255.19
2022-10-20T17:14:07.148Z,101255.63
2022-10-20T17:16:38.305Z,101251.91
2022-10-20T17:19:07.713Z,101250.47
2022-10-20T17:21:37.053Z,101252.75
2022-10-20T17:24:06.253Z,101252.31
2022-10-20T17:26:35.155Z,101258.97
2022-10-20T17:29:04.280Z,101257.13
2022-10-20T17:31:34.256Z,101257.75
2022-10-20T17:34:02.871Z,101251.72
2022-10-20T17:36:32.342Z,101262.84
2022-10-20T17:39:03.004Z,101254.53
2022-10-20T17:41:31.964Z,101255.84
2022-10-20T17:44:01.784Z,101258.81
2022-10-20T17:46:30.670Z,101266.34
2022-10-20T17:49:01.708Z,101260.44
2022-10-20T17:51:33.708Z,101261.19
2022-10-20T17:54:04.347Z,101256.31
2022-10-20T17:56:35.892Z,101251.22
2022-10-20T17:59:06.599Z,101253.50
2022-10-20T18:01:38.660Z,101256.91
2022-10-20T18:04:11.837Z,101255.78
2022-10-20T18:06:40.966Z,101259.66
2022-10-20T18:09:11.983Z,101256.63
2022-10-20T18:11:42.335Z,101255.91
2022-10-20T18:14:11.230Z,101255.22
2022-10-20T18:16:40.733Z,101252.13
2022-10-20T18:19:14.887Z,101249.41
2022-10-20T18:21:44.402Z,101254.66
2022-10-20T18:24:15.272Z,101252.41
2022-10-20T18:26:44.946Z,101240.78
2022-10-20T18:29:14.687Z,101249.59
2022-10-20T18:31:44.378Z,101243.47
2022-10-20T18:34:17.287Z,101245.53
2022-10-20T18:36:46.416Z,101244.97
2022-10-20T18:39:16.145Z,101241.88
2022-10-20T18:41:46.504Z,101249.94
2022-10-20T18:44:17.348Z,101253.50
2022-10-20T18:46:47.062Z,101259.31
2022-10-20T18:49:21.578Z,101255.75
2022-10-20T18:51:50.510Z,101257.91
2022-10-20T18:54:20.051Z,101243.81
2022-10-20T18:56:48.937Z,101253.19
2022-10-20T18:59:18.045Z,101251.66
2022-10-20T19:01:48.356Z,101248.38
2022-10-20T19:04:18.609Z,101246.59
2022-10-20T19:06:48.636Z,101251.00
2022-10-20T19:09:19.095Z,101257.38
2022-10-20T19:11:47.898Z,101261.88
2022-10-20T19:14:17.001Z,101268.69
2022-10-20T19:16:47.149Z,101271.75
2022-10-20T19:19:18.708Z,101265.22
2022-10-20T19:21:47.875Z,101255.84
2022-10-20T19:24:18.614Z,101258.13
2022-10-20T19:26:57.174Z,101254.31
2022-10-20T19:29:37.614Z,101254.31
2022-10-20T19:32:07.625Z,101250.75
2022-10-20T19:34:39.852Z,101256.41
2022-10-20T19:37:09.563Z,101250.69
2022-10-20T19:39:40.541Z,101253.13
2022-10-20T19:42:10.177Z,101253.31
2022-10-20T19:44:39.093Z,101244.78
2022-10-20T19:47:08.187Z,101241.47
2022-10-20T19:49:38.751Z,101241.63
2022-10-20T19:52:08.295Z,101243.66
2022-10-20T19:54:37.195Z,101236.34
2022-10-20T19:57:06.397Z,101230.84
2022-10-20T19:59:35.396Z,101226.59
2022-10-20T20:02:04.612Z,101246.91
2022-10-20T20:04:33.046Z,101248.59
2022-10-20T20:07:06.493Z,101250.38
2022-10-20T20:09:35.345Z,101239.31
2022-10-20T20:12:06.751Z,101236.31
2022-10-20T20:14:35.859Z,101233.78
2022-10-20T20:17:07.342Z,101229.53
2022-10-20T20:19:38.749Z,101221.16
2022-10-20T20:22:09.340Z,101227.28
2022-10-20T20:24:39.000Z,101226.19
2022-10-20T20:27:07.925Z,101220.19
2022-10-20T20:29:36.789Z,101220.75
2022-10-20T20:32:05.917Z,101221.94
2022-10-20T20:34:34.377Z,101230.06
2022-10-20T20:37:03.209Z,101225.91
2022-10-20T20:39:33.423Z,101227.16
2022-10-20T20:42:02.183Z,101225.91
2022-10-20T20:44:30.940Z,101211.31
2022-10-20T20:46:59.837Z,101215.97
2022-10-20T20:49:28.360Z,101218.94
2022-10-20T20:51:57.462Z,101207.69
2022-10-20T20:54:28.315Z,101199.22
2022-10-20T20:57:01.138Z,101206.16
2022-10-20T20:59:29.814Z,101207.84
2022-10-20T21:01:58.666Z,101202.81
2022-10-20T21:04:30.646Z,101200.13
2022-10-20T21:07:02.404Z,101199.44
2022-10-20T21:09:32.378Z,101201.38
2022-10-20T21:12:03.025Z,101189.13
2022-10-20T21:14:32.303Z,101181.59
2022-10-20T21:17:01.191Z,101178.44
2022-10-20T21:19:29.925Z,101189.84
2022-10-20T21:21:58.797Z,101179.38
2022-10-20T21:24:27.886Z,101176.13
2022-10-20T21:26:56.943Z,101171.75
2022-10-20T21:29:27.306Z,101170.06
2022-10-20T21:31:58.090Z,101165.16
2022-10-20T21:34:27.448Z,101156.63
2022-10-20T21:36:56.303Z,101165.56
2022-10-20T21:39:25.174Z,101170.78
2022-10-20T21:41:54.073Z,101169.09
2022-10-20T21:44:23.008Z,101166.53
2022-10-20T21:46:53.149Z,101164.00
2022-10-20T21:49:25.442Z,101167.88
2022-10-20T21:51:55.732Z,101162.78
2022-10-20T21:54:25.801Z,101161.50
2022-10-20T21:56:55.299Z,101159.69
2022-10-20T21:59:25.260Z,101164.16
2022-10-20T22:01:57.253Z,101153.13
2022-10-20T22:04:27.926Z,101160.34
2022-10-20T22:06:57.367Z,101156.97
2022-10-20T22:09:29.929Z,101151.09
2022-10-20T22:11:59.764Z,101154.03
2022-10-20T22:14:30.665Z,101158.63
2022-10-20T22:17:01.285Z,101152.47
2022-10-20T22:19:29.832Z,101145.69
2022-10-20T22:21:59.785Z,101138.94
2022-10-20T22:24:30.688Z,101127.69
2022-10-20T22:26:59.837Z,101121.84
2022-10-20T22:29:28.879Z,101123.38
2022-10-20T22:31:57.727Z,101116.41
2022-10-20T22:34:27.744Z,101122.69
2022-10-20T22:36:56.282Z,101118.47
2022-10-20T22:39:25.180Z,101114.38
2022-10-20T22:41:53.930Z,101109.38
2022-10-20T22:44:22.664Z,101105.22
2022-10-20T22:46:51.149Z,101097.38
2022-10-20T22:49:19.981Z,101096.59
2022-10-20T22:51:50.238Z,101108.00
2022-10-20T22:54:20.415Z,101102.00
2022-10-20T22:56:52.220Z,101093.50
2022-10-20T22:59:21.228Z,101094.53
2022-10-20T23:01:50.082Z,101096.66
2022-10-20T23:04:18.980Z,101107.16
2022-10-20T23:06:49.194Z,101103.03
2022-10-20T23:09:17.870Z,101103.09
2022-10-20T23:11:46.676Z,101100.56
2022-10-20T23:14:15.522Z,101107.00
2022-10-20T23:16:44.316Z,101104.53
2022-10-20T23:19:13.185Z,101092.31
2022-10-20T23:21:42.013Z,101091.47
2022-10-20T23:24:12.303Z,101098.38
2022-10-20T23:26:40.826Z,101101.06
2022-10-20T23:29:09.672Z,101097.91
2022-10-20T23:31:38.161Z,101100.75
2022-10-20T23:34:06.935Z,101095.56
2022-10-20T23:36:39.020Z,101098.41
2022-10-20T23:39:08.407Z,101098.28
2022-10-20T23:41:38.688Z,101099.25
2022-10-20T23:44:07.289Z,101097.56
2022-10-20T23:46:35.739Z,101107.03
2022-10-20T23:49:04.995Z,101111.63
2022-10-20T23:51:34.260Z,101115.97
2022-10-20T23:54:03.020Z,101118.91
2022-10-20T23:56:31.835Z,101105.97
2022-10-20T23:59:01.966Z,101101.66
